Map

Track Data

SID SEASON NUMBER BASIN SUBBASIN NAME ISO_TIME NATURE LAT LON WMO_WIND WMO_PRES WMO_AGENCY TRACK_TYPE DIST2LAND LANDFALL IFLAG USA_AGENCY USA_ATCF_ID USA_LAT USA_LON USA_RECORD USA_STATUS USA_WIND USA_PRES USA_SSHS USA_R34_NE USA_R34_SE USA_R34_SW USA_R34_NW USA_R50_NE USA_R50_SE USA_R50_SW USA_R50_NW USA_R64_NE USA_R64_SE USA_R64_SW USA_R64_NW USA_POCI USA_ROCI USA_RMW USA_EYE TOKYO_LAT TOKYO_LON TOKYO_GRADE TOKYO_WIND TOKYO_PRES TOKYO_R50_DIR TOKYO_R50_LONG TOKYO_R50_SHORT TOKYO_R30_DIR TOKYO_R30_LONG TOKYO_R30_SHORT TOKYO_LAND CMA_LAT CMA_LON CMA_CAT CMA_WIND CMA_PRES HKO_LAT HKO_LON HKO_CAT HKO_WIND HKO_PRES NEWDELHI_LAT NEWDELHI_LON NEWDELHI_GRADE NEWDELHI_WIND NEWDELHI_PRES NEWDELHI_CI NEWDELHI_DP NEWDELHI_POCI REUNION_LAT REUNION_LON REUNION_TYPE REUNION_WIND REUNION_PRES REUNION_TNUM REUNION_CI REUNION_RMW REUNION_R34_NE REUNION_R34_SE REUNION_R34_SW REUNION_R34_NW REUNION_R50_NE REUNION_R50_SE REUNION_R50_SW REUNION_R50_NW REUNION_R64_NE REUNION_R64_SE REUNION_R64_SW REUNION_R64_NW BOM_LAT BOM_LON BOM_TYPE BOM_WIND BOM_PRES BOM_TNUM BOM_CI BOM_RMW BOM_R34_NE BOM_R34_SE BOM_R34_SW BOM_R34_NW BOM_R50_NE BOM_R50_SE BOM_R50_SW BOM_R50_NW BOM_R64_NE BOM_R64_SE BOM_R64_SW BOM_R64_NW BOM_ROCI BOM_POCI BOM_EYE BOM_POS_METHOD BOM_PRES_METHOD NADI_LAT NADI_LON NADI_CAT NADI_WIND NADI_PRES WELLINGTON_LAT WELLINGTON_LON WELLINGTON_WIND WELLINGTON_PRES DS824_LAT DS824_LON DS824_STAGE DS824_WIND DS824_PRES TD9636_LAT TD9636_LON TD9636_STAGE TD9636_WIND TD9636_PRES TD9635_LAT TD9635_LON TD9635_WIND TD9635_PRES TD9635_ROCI NEUMANN_LAT NEUMANN_LON NEUMANN_CLASS NEUMANN_WIND NEUMANN_PRES MLC_LAT MLC_LON MLC_CLASS MLC_WIND MLC_PRES USA_GUST BOM_GUST BOM_GUST_PER REUNION_GUST REUNION_GUST_PER USA_SEAHGT USA_SEARAD_NE USA_SEARAD_SE USA_SEARAD_SW USA_SEARAD_NW STORM_SPEED STORM_DIR
1954321N24317 1954 91 NA NA NOT_NAMED 1954-11-16 18:00:00 TS 23.7000 -43.5000 30 hurdat_atl main 2287 2265 O_____________ hurdat_atl AL151954 23.7000 -43.5000 TD 30 -1 9 276
1954321N24317 1954 91 NA NA NOT_NAMED 1954-11-16 21:00:00 TS 23.7477 -43.9950 main 2265 2253 P_____________ AL151954 23.7477 -43.9950 TD 30 -1 9 276
1954321N24317 1954 91 NA NA NOT_NAMED 1954-11-17 00:00:00 TS 23.8000 -44.5000 30 hurdat_atl main 2253 2220 O_____________ hurdat_atl AL151954 23.8000 -44.5000 TD 30 -1 9 277
1954321N24317 1954 91 NA NA NOT_NAMED 1954-11-17 03:00:00 TS 23.8575 -45.0149 main 2220 2170 P_____________ AL151954 23.8575 -45.0149 TD 30 -1 9 276
1954321N24317 1954 91 NA NA NOT_NAMED 1954-11-17 06:00:00 TS 23.9000 -45.5000 30 hurdat_atl main 2170 2130 O_____________ hurdat_atl AL151954 23.9000 -45.5000 TD 30 -1 8 274
1954321N24317 1954 91 NA NA NOT_NAMED 1954-11-17 09:00:00 TS 23.9223 -45.9225 main 2130 2091 P_____________ AL151954 23.9223 -45.9225 TD 32 -1 7 270
1954321N24317 1954 91 NA NA NOT_NAMED 1954-11-17 12:00:00 TS 23.9000 -46.3000 35 hurdat_atl main 2091 2049 O_____________ hurdat_atl AL151954 23.9000 -46.3000 TS 35 0 7 261
1954321N24317 1954 91 NA NA NOT_NAMED 1954-11-17 15:00:00 TS 23.8150 -46.6726 main 2049 2016 P_____________ AL151954 23.8150 -46.6726 TS 35 0 7 253
1954321N24317 1954 91 NA NA NOT_NAMED 1954-11-17 18:00:00 TS 23.7000 -47.0000 35 hurdat_atl main 2016 1984 O_____________ hurdat_atl AL151954 23.7000 -47.0000 TS 35 0 6 246
1954321N24317 1954 91 NA NA NOT_NAMED 1954-11-17 21:00:00 TS 23.5699 -47.2726 main 1984 1962 P_____________ AL151954 23.5699 -47.2726 TS 35 0 5 246
1954321N24317 1954 91 NA NA NOT_NAMED 1954-11-18 00:00:00 TS 23.5000 -47.5000 35 hurdat_atl main 1962 1942 O_____________ hurdat_atl AL151954 23.5000 -47.5000 TS 35 0 4 269
1954321N24317 1954 91 NA NA NOT_NAMED 1954-11-18 03:00:00 TS 23.5624 -47.6999 main 1944 1927 P_____________ AL151954 23.5624 -47.6999 TS 35 0 4 299
1954321N24317 1954 91 NA NA NOT_NAMED 1954-11-18 06:00:00 TS 23.7000 -47.9000 35 hurdat_atl main 1927 1911 O_____________ hurdat_atl AL151954 23.7000 -47.9000 TS 35 0 5 306
1954321N24317 1954 91 NA NA NOT_NAMED 1954-11-18 09:00:00 TS 23.8500 -48.1350 main 1911 1887 P_____________ AL151954 23.8500 -48.1350 TS 35 0 5 303
1954321N24317 1954 91 NA NA NOT_NAMED 1954-11-18 12:00:00 TS 24.0000 -48.4000 35 hurdat_atl main 1887 1861 O_____________ hurdat_atl AL151954 24.0000 -48.4000 TS 35 0 6 297
1954321N24317 1954 91 NA NA NOT_NAMED 1954-11-18 15:00:00 TS 24.1150 -48.7000 main 1861 1835 P_____________ AL151954 24.1150 -48.7000 TS 35 0 6 290
1954321N24317 1954 91 NA NA NOT_NAMED 1954-11-18 18:00:00 TS 24.2000 -49.0000 35 1005 hurdat_atl main 1835 1816 O_____________ hurdat_atl AL151954 24.2000 -49.0000 TS 35 1005 0 5 285
1954321N24317 1954 91 NA NA NOT_NAMED 1954-11-18 21:00:00 TS 24.2499 -49.2501 main 1806 1791 P_____________ AL151954 24.2499 -49.2501 TS 32 -1 5 282
1954321N24317 1954 91 NA NA NOT_NAMED 1954-11-19 00:00:00 TS 24.3000 -49.5000 30 hurdat_atl main 1791 1765 O_____________ hurdat_atl AL151954 24.3000 -49.5000 TD 30 -1 5 287
1954321N24317 1954 91 NA NA NOT_NAMED 1954-11-19 03:00:00 TS 24.4000 -49.7924 main 1765 1741 P_____________ AL151954 24.4000 -49.7924 TD 30 -1 6 290
1954321N24317 1954 91 NA NA NOT_NAMED 1954-11-19 06:00:00 TS 24.5000 -50.1000 30 hurdat_atl main 1741 1716 O_____________ hurdat_atl AL151954 24.5000 -50.1000 TD 30 -1 6 288
1954321N24317 1954 91 NA NA NOT_NAMED 1954-11-19 09:00:00 TS 24.5798 -50.3849 main 1716 1688 P_____________ AL151954 24.5798 -50.3849 TD 30 -1 6 280
1954321N24317 1954 91 NA NA NOT_NAMED 1954-11-19 12:00:00 TS 24.6000 -50.7000 30 hurdat_atl main 1688 1646 O_____________ hurdat_atl AL151954 24.6000 -50.7000 TD 30 -1 6 266
1954321N24317 1954 91 NA NA NOT_NAMED 1954-11-19 15:00:00 TS 24.5300 -51.0851 main 1646 1604 P_____________ AL151954 24.5300 -51.0851 TD 30 -1 8 255
1954321N24317 1954 91 NA NA NOT_NAMED 1954-11-19 18:00:00 TS 24.4000 -51.5000 30 hurdat_atl main 1604 1558 O_____________ hurdat_atl AL151954 24.4000 -51.5000 TD 30 -1 8 249
1954321N24317 1954 91 NA NA NOT_NAMED 1954-11-19 21:00:00 TS 24.2350 -51.9077 main 1558 1517 P_____________ AL151954 24.2350 -51.9077 TD 30 -1 8 248
1954321N24317 1954 91 NA NA NOT_NAMED 1954-11-20 00:00:00 TS 24.1000 -52.3000 30 hurdat_atl main 1517 1489 O_____________ hurdat_atl AL151954 24.1000 -52.3000 TD 30 -1 7 256
1954321N24317 1954 91 NA NA NOT_NAMED 1954-11-20 03:00:00 TS 24.0624 -52.6649 main 1479 1451 P_____________ AL151954 24.0624 -52.6649 TD 30 -1 6 270
1954321N24317 1954 91 NA NA NOT_NAMED 1954-11-20 06:00:00 TS 24.1000 -53.0000 30 hurdat_atl main 1451 1428 O_____________ hurdat_atl AL151954 24.1000 -53.0000 TD 30 -1 6 282
1954321N24317 1954 91 NA NA NOT_NAMED 1954-11-20 09:00:00 TS 24.1849 -53.3149 main 1428 1405 P_____________ AL151954 24.1849 -53.3149 TD 30 -1 6 290
1954321N24317 1954 91 NA NA NOT_NAMED 1954-11-20 12:00:00 TS 24.3000 -53.6000 30 hurdat_atl main 1405 1392 O_____________ hurdat_atl AL151954 24.3000 -53.6000 TD 30 -1 5 296
1954321N24317 1954 91 NA NA NOT_NAMED 1954-11-20 15:00:00 TS 24.4072 -53.8201 main 1392 1370 P_____________ AL151954 24.4072 -53.8201 TD 30 -1 5 294
1954321N24317 1954 91 NA NA NOT_NAMED 1954-11-20 18:00:00 TS 24.5000 -54.1000 30 hurdat_atl main 1370 1325 O_____________ hurdat_atl AL151954 24.5000 -54.1000 TD 30 -1 7 282
1954321N24317 1954 91 NA NA NOT_NAMED 1954-11-20 21:00:00 TS 24.5503 -54.5851 main 1331 1287 P_____________ AL151954 24.5503 -54.5851 TD 30 -1 9 276
1954321N24317 1954 91 NA NA NOT_NAMED 1954-11-21 00:00:00 TS 24.6000 -55.1000 30 hurdat_atl main 1287 1258 O_____________ hurdat_atl AL151954 24.6000 -55.1000 TD 30 -1 8 280
1954321N24317 1954 91 NA NA NOT_NAMED 1954-11-21 03:00:00 TS 24.6922 -55.4725 main 1258 1239 P_____________ AL151954 24.6922 -55.4725 TD 30 -1 7 287
1954321N24317 1954 91 NA NA NOT_NAMED 1954-11-21 06:00:00 TS 24.8000 -55.8000 30 hurdat_atl main 1239 1220 O_____________ hurdat_atl AL151954 24.8000 -55.8000 TD 30 -1 6 289
1954321N24317 1954 91 NA NA NOT_NAMED 1954-11-21 09:00:00 TS 24.8999 -56.1501 main 1212 1194 P_____________ AL151954 24.8999 -56.1501 TD 30 -1 7 287
1954321N24317 1954 91 NA NA NOT_NAMED 1954-11-21 12:00:00 TS 25.0000 -56.5000 30 hurdat_atl main 1194 1176 O_____________ hurdat_atl AL151954 25.0000 -56.5000 TD 30 -1 7 288
1954321N24317 1954 91 NA NA NOT_NAMED 1954-11-21 15:00:00 TS 25.1002 -56.8499 main 1176 1152 P_____________ AL151954 25.1002 -56.8499 TD 27 -1 7 287
1954321N24317 1954 91 NA NA NOT_NAMED 1954-11-21 18:00:00 TS 25.2000 -57.2000 25 hurdat_atl main 1152 O_____________ hurdat_atl AL151954 25.2000 -57.2000 TD 25 -1 7 288

About IBTrACS Database

This database is a web-friendly format of International Best Track Archive for Climate Stewardship (IBTrACS), a global best track data archive curated by NOAA dating back to 1842.

Updated: 2021-12-03